createdAt,value
2023-01-19T00:02:51.166Z,14.60
2023-01-19T00:07:53.436Z,14.80
2023-01-19T00:12:55.761Z,13.30
2023-01-19T00:17:58.027Z,14.00
2023-01-19T00:23:00.796Z,12.70
2023-01-19T00:28:03.364Z,14.30
2023-01-19T00:33:05.826Z,13.67
2023-01-19T00:38:08.461Z,13.40
2023-01-19T00:43:10.785Z,13.27
2023-01-19T00:48:13.010Z,11.10
2023-01-19T00:53:15.436Z,13.50
2023-01-19T00:58:17.783Z,12.07
2023-01-19T01:03:20.140Z,12.73
2023-01-19T01:08:22.385Z,13.60
2023-01-19T01:13:27.512Z,12.20
2023-01-19T01:18:30.476Z,11.33
2023-01-19T01:23:33.969Z,10.83
2023-01-19T01:28:36.223Z,11.70
2023-01-19T01:33:39.901Z,12.60
2023-01-19T01:38:43.853Z,13.23
2023-01-19T01:43:58.487Z,13.13
2023-01-19T01:49:13.662Z,13.90
2023-01-19T01:54:27.356Z,13.27
2023-01-19T01:59:43.555Z,10.87
2023-01-19T02:04:51.305Z,11.30
2023-01-19T02:10:12.637Z,11.00
2023-01-19T02:15:20.300Z,10.03
2023-01-19T02:20:26.829Z,11.30
2023-01-19T02:25:29.205Z,11.00
2023-01-19T02:30:33.110Z,10.97
2023-01-19T02:35:38.239Z,12.40
2023-01-19T02:40:43.184Z,11.20
2023-01-19T02:45:46.795Z,10.73
2023-01-19T02:51:00.816Z,11.63
2023-01-19T02:56:42.990Z,9.50
2023-01-19T03:02:17.764Z,10.70
2023-01-19T03:07:45.226Z,11.73
2023-01-19T03:13:04.943Z,10.70
2023-01-19T03:18:11.020Z,11.67
2023-01-19T03:23:16.222Z,11.43
2023-01-19T03:28:22.871Z,10.47
2023-01-19T03:33:39.192Z,10.80
2023-01-19T03:38:44.130Z,10.47
2023-01-19T03:43:50.724Z,10.30
2023-01-19T03:48:54.374Z,11.00
2023-01-19T03:53:56.627Z,9.30
2023-01-19T03:58:58.847Z,8.80
2023-01-19T04:04:01.199Z,8.93
2023-01-19T04:09:03.506Z,9.60
2023-01-19T04:14:05.881Z,9.53
2023-01-19T04:19:08.165Z,9.10
2023-01-19T04:24:11.280Z,7.90
2023-01-19T04:29:14.453Z,8.73
2023-01-19T04:34:16.778Z,9.27
2023-01-19T04:39:19.061Z,8.93
2023-01-19T04:44:21.171Z,8.10
2023-01-19T04:49:24.050Z,7.77
2023-01-19T04:54:27.621Z,8.27
2023-01-19T04:59:29.859Z,7.67
2023-01-19T05:04:31.988Z,7.07
2023-01-19T05:09:34.180Z,6.63
2023-01-19T05:14:36.559Z,7.90
2023-01-19T05:19:39.259Z,7.10
2023-01-19T05:24:41.474Z,6.90
2023-01-19T05:29:43.618Z,6.77
2023-01-19T05:34:45.761Z,7.23
2023-01-19T05:39:47.875Z,6.00
2023-01-19T05:44:50.010Z,5.90
2023-01-19T05:49:52.234Z,6.50
2023-01-19T05:54:55.278Z,6.20
2023-01-19T05:59:57.494Z,5.33
2023-01-19T06:04:59.827Z,6.20
2023-01-19T06:10:02.076Z,6.80
2023-01-19T06:15:04.888Z,5.77
2023-01-19T06:20:07.961Z,6.17
2023-01-19T06:25:11.665Z,6.03
2023-01-19T06:30:14.724Z,6.43
2023-01-19T06:35:18.402Z,5.50
2023-01-19T06:40:20.646Z,6.43
2023-01-19T06:45:22.738Z,5.80
2023-01-19T06:50:24.844Z,6.57
2023-01-19T06:55:28.009Z,6.97
2023-01-19T07:00:30.480Z,6.70
2023-01-19T07:05:33.979Z,6.90
2023-01-19T07:11:24.368Z,6.90
2023-01-19T07:15:59.264Z,6.87
2023-01-19T07:21:01.830Z,5.90
2023-01-19T07:26:04.058Z,7.30
2023-01-19T07:31:06.774Z,5.47
2023-01-19T07:36:09.571Z,7.20
2023-01-19T07:41:12.247Z,6.13
2023-01-19T07:46:14.577Z,6.67
2023-01-19T07:51:19.568Z,5.80
2023-01-19T07:56:22.465Z,5.37
2023-01-19T08:01:24.788Z,5.03
2023-01-19T08:06:34.076Z,5.80
2023-01-19T08:11:36.837Z,6.57
2023-01-19T08:16:39.040Z,5.47
2023-01-19T08:21:41.295Z,5.07
2023-01-19T08:26:43.635Z,5.90
2023-01-19T08:31:46.040Z,6.53
2023-01-19T08:36:48.265Z,4.60
2023-01-19T08:41:54.064Z,5.20
2023-01-19T08:46:56.176Z,5.37
2023-01-19T08:51:58.385Z,5.33
2023-01-19T08:57:00.603Z,6.00
2023-01-19T09:02:02.804Z,5.93
2023-01-19T09:12:08.302Z,5.70
2023-01-19T09:17:10.601Z,5.93
2023-01-19T09:22:12.697Z,5.23
2023-01-19T09:27:14.953Z,5.50
2023-01-19T09:32:17.275Z,5.40
2023-01-19T09:37:19.376Z,5.10
2023-01-19T09:42:35.011Z,6.00
2023-01-19T09:47:38.437Z,6.30
2023-01-19T09:52:44.835Z,5.73
2023-01-19T09:57:47.048Z,5.93
2023-01-19T10:02:57.927Z,6.67
2023-01-19T10:08:44.135Z,5.50
2023-01-19T10:13:52.395Z,6.33
2023-01-19T10:19:00.419Z,6.80
2023-01-19T10:24:20.155Z,5.67
2023-01-19T10:29:37.843Z,7.37
2023-01-19T10:34:41.657Z,5.87
2023-01-19T10:39:53.033Z,7.07
2023-01-19T10:44:55.607Z,6.70
2023-01-19T10:49:58.055Z,5.63
2023-01-19T10:55:04.395Z,5.20
2023-01-19T11:00:30.327Z,6.20
2023-01-19T11:05:34.750Z,6.27
2023-01-19T11:10:38.583Z,7.10
2023-01-19T11:15:57.636Z,6.63
2023-01-19T11:21:04.039Z,6.23
2023-01-19T11:26:06.616Z,6.07
2023-01-19T11:31:14.793Z,5.63
2023-01-19T11:36:25.660Z,5.90
2023-01-19T11:41:37.650Z,4.80
2023-01-19T11:46:45.239Z,5.57
2023-01-19T11:52:15.643Z,6.57
2023-01-19T11:57:18.052Z,5.33
2023-01-19T12:02:43.801Z,6.43
2023-01-19T12:07:48.304Z,5.03
2023-01-19T12:12:52.278Z,6.20
2023-01-19T12:18:00.772Z,5.50
2023-01-19T12:23:16.675Z,7.17
2023-01-19T12:28:33.287Z,5.37
2023-01-19T12:33:38.485Z,6.90
2023-01-19T12:38:52.908Z,5.97
2023-01-19T12:44:16.524Z,6.40
2023-01-19T12:49:37.884Z,5.40
2023-01-19T12:55:15.179Z,6.37
2023-01-19T13:00:23.437Z,6.43
2023-01-19T13:05:32.864Z,6.50
2023-01-19T13:11:00.278Z,6.50
2023-01-19T13:16:29.644Z,6.00
2023-01-19T13:21:39.104Z,6.43
2023-01-19T13:26:50.573Z,6.50
2023-01-19T13:31:54.821Z,6.47
2023-01-19T13:37:02.159Z,6.63
2023-01-19T13:42:43.878Z,6.50
2023-01-19T13:47:49.022Z,6.13
2023-01-19T13:52:54.070Z,6.10
2023-01-19T13:57:57.399Z,5.60
2023-01-19T14:03:21.625Z,5.50
2023-01-19T14:08:25.680Z,5.10
2023-01-19T14:13:41.701Z,5.30
2023-01-19T14:18:44.182Z,4.43
2023-01-19T14:24:06.136Z,4.83
2023-01-19T14:29:29.506Z,5.00
2023-01-19T14:34:44.606Z,5.30
2023-01-19T14:39:51.539Z,4.30
2023-01-19T14:44:56.075Z,5.47
2023-01-19T14:50:07.486Z,4.60
2023-01-19T14:55:45.490Z,5.37
2023-01-19T15:00:49.054Z,5.43
2023-01-19T15:05:51.668Z,5.00
2023-01-19T15:10:53.915Z,4.63
2023-01-19T15:15:56.290Z,4.53
2023-01-19T15:21:03.219Z,5.40
2023-01-19T15:26:05.915Z,5.00
2023-01-19T15:31:09.469Z,6.00
2023-01-19T15:36:18.307Z,6.60
2023-01-19T15:41:27.469Z,5.30
2023-01-19T15:46:29.785Z,5.20
2023-01-19T15:51:32.707Z,6.07
2023-01-19T15:56:35.024Z,6.80
2023-01-19T16:01:37.560Z,5.77
2023-01-19T16:06:40.046Z,4.90
2023-01-19T16:11:42.321Z,6.60
2023-01-19T16:16:46.266Z,5.10
2023-01-19T16:21:48.470Z,6.10
2023-01-19T16:26:50.748Z,6.40
2023-01-19T16:31:52.887Z,5.50
2023-01-19T16:36:55.230Z,5.27
2023-01-19T16:41:57.370Z,5.63
2023-01-19T16:46:59.535Z,6.27
2023-01-19T16:52:02.024Z,6.30
2023-01-19T16:57:04.280Z,6.50
2023-01-19T17:02:07.404Z,7.97
2023-01-19T17:07:09.721Z,8.90
2023-01-19T17:12:12.722Z,7.70
2023-01-19T17:17:15.134Z,7.50
2023-01-19T17:22:17.240Z,7.40
2023-01-19T17:27:19.331Z,7.07
2023-01-19T17:32:21.475Z,6.37
2023-01-19T17:37:23.923Z,6.60
2023-01-19T17:42:26.014Z,7.30
2023-01-19T17:47:28.110Z,5.97
2023-01-19T17:52:30.205Z,8.27
2023-01-19T17:57:32.496Z,7.43
2023-01-19T18:02:34.889Z,7.40
2023-01-19T18:07:37.046Z,5.77
2023-01-19T18:12:39.422Z,6.20
2023-01-19T18:17:41.496Z,4.33
2023-01-19T18:22:43.564Z,4.63
2023-01-19T18:27:45.826Z,3.90
2023-01-19T18:32:48.089Z,4.00
2023-01-19T18:37:50.169Z,4.27
2023-01-19T18:42:52.272Z,4.30
2023-01-19T18:47:54.371Z,5.20
2023-01-19T18:52:56.470Z,8.20
2023-01-19T18:57:58.683Z,9.60
2023-01-19T19:03:01.562Z,12.00
2023-01-19T19:08:04.840Z,14.23
2023-01-19T19:13:07.150Z,14.83
2023-01-19T19:18:11.192Z,13.20
2023-01-19T19:23:13.358Z,12.20
2023-01-19T19:28:15.625Z,11.80
2023-01-19T19:33:17.876Z,12.50
2023-01-19T19:38:20.105Z,10.17
2023-01-19T19:43:22.990Z,12.60
2023-01-19T19:48:25.717Z,14.17
2023-01-19T19:53:28.030Z,14.53
2023-01-19T19:58:31.062Z,11.97
2023-01-19T20:03:33.155Z,11.27
2023-01-19T20:08:35.947Z,12.97
2023-01-19T20:13:40.664Z,12.87
2023-01-19T20:18:48.544Z,13.47
2023-01-19T20:23:54.231Z,14.97
2023-01-19T20:29:03.109Z,12.10
2023-01-19T20:34:08.957Z,29.47
2023-01-19T20:39:11.435Z,6.03
2023-01-19T20:44:19.748Z,16.60
2023-01-19T20:49:22.376Z,14.47
2023-01-19T20:54:28.040Z,4.90
2023-01-19T20:59:30.265Z,9.90
2023-01-19T21:04:32.369Z,8.70
2023-01-19T21:09:34.986Z,9.43
2023-01-19T21:14:37.401Z,13.07
2023-01-19T21:19:39.533Z,15.17
2023-01-19T21:24:44.322Z,8.40
2023-01-19T21:29:48.555Z,12.27
2023-01-19T21:34:50.827Z,9.63
2023-01-19T21:39:52.964Z,6.10
2023-01-19T21:44:55.173Z,8.20
2023-01-19T21:49:57.285Z,8.07
2023-01-19T21:54:59.507Z,7.00
2023-01-19T22:00:01.678Z,7.07
2023-01-19T22:05:06.669Z,7.80
2023-01-19T22:10:11.124Z,7.90
2023-01-19T22:15:13.405Z,10.30
2023-01-19T22:20:16.061Z,11.07
2023-01-19T22:25:21.962Z,10.47
2023-01-19T22:30:24.248Z,11.27
2023-01-19T22:35:26.517Z,10.70
2023-01-19T22:40:28.880Z,10.43
2023-01-19T22:45:30.965Z,10.07
2023-01-19T22:50:33.164Z,10.03
2023-01-19T22:55:35.711Z,10.13
2023-01-19T23:00:37.949Z,10.40
2023-01-19T23:05:40.174Z,10.07
2023-01-19T23:10:42.472Z,8.73
2023-01-19T23:15:44.801Z,10.27
2023-01-19T23:20:47.171Z,9.47
2023-01-19T23:26:08.452Z,8.63
2023-01-19T23:31:23.095Z,8.40
2023-01-19T23:36:28.387Z,7.67
2023-01-19T23:41:34.656Z,8.13
2023-01-19T23:46:36.998Z,8.73
2023-01-19T23:51:40.747Z,8.40
2023-01-19T23:56:43.228Z,8.77
